sensor_id;sensor_type;location;lat;lon;timestamp;pressure;altitude;pressure_sealevel;temperature;humidity
73821;BME280;62150;43.582;1.456;2023-05-12T05:25:43;100065.59;;;13.44;100.00
73821;BME280;62150;43.582;1.456;2023-05-12T05:28:11;100061.91;;;14.28;100.00
73821;BME280;62150;43.582;1.456;2023-05-12T05:30:39;100071.66;;;13.75;100.00
73821;BME280;62150;43.582;1.456;2023-05-12T05:33:06;100075.72;;;13.64;100.00
73821;BME280;62150;43.582;1.456;2023-05-12T05:35:34;100070.16;;;13.87;100.00
73821;BME280;62150;43.582;1.456;2023-05-12T05:38:01;100077.06;;;13.38;100.00
73821;BME280;62150;43.582;1.456;2023-05-12T05:40:29;100069.75;;;13.79;100.00
73821;BME280;62150;43.582;1.456;2023-05-12T05:42:58;100069.66;;;13.81;100.00
73821;BME280;62150;43.582;1.456;2023-05-12T05:45:25;100074.84;;;13.81;100.00
73821;BME280;62150;43.582;1.456;2023-05-12T05:47:53;100077.34;;;13.82;100.00
73821;BME280;62150;43.582;1.456;2023-05-12T05:50:20;100070.00;;;14.06;100.00
73821;BME280;62150;43.582;1.456;2023-05-12T05:52:48;100074.00;;;13.96;100.00
73821;BME280;62150;43.582;1.456;2023-05-12T05:55:16;100072.94;;;13.84;100.00
73821;BME280;62150;43.582;1.456;2023-05-12T05:57:43;100070.75;;;13.92;100.00
73821;BME280;62150;43.582;1.456;2023-05-12T06:00:14;100072.53;;;13.59;100.00
73821;BME280;62150;43.582;1.456;2023-05-12T06:02:44;100076.34;;;13.52;100.00
73821;BME280;62150;43.582;1.456;2023-05-12T06:05:12;100076.69;;;14.10;100.00
73821;BME280;62150;43.582;1.456;2023-05-12T06:07:39;100071.91;;;13.87;100.00
73821;BME280;62150;43.582;1.456;2023-05-12T06:10:07;100069.78;;;13.62;100.00
73821;BME280;62150;43.582;1.456;2023-05-12T06:12:35;100075.84;;;14.41;100.00
73821;BME280;62150;43.582;1.456;2023-05-12T06:15:03;100073.09;;;14.44;100.00
73821;BME280;62150;43.582;1.456;2023-05-12T06:17:32;100070.66;;;14.25;100.00
73821;BME280;62150;43.582;1.456;2023-05-12T06:19:59;100068.97;;;14.24;100.00
73821;BME280;62150;43.582;1.456;2023-05-12T06:22:27;100073.59;;;14.51;100.00
73821;BME280;62150;43.582;1.456;2023-05-12T06:24:54;100064.44;;;14.75;100.00
73821;BME280;62150;43.582;1.456;2023-05-12T06:27:28;100066.22;;;14.59;100.00
73821;BME280;62150;43.582;1.456;2023-05-12T06:30:03;100065.09;;;14.93;100.00
73821;BME280;62150;43.582;1.456;2023-05-12T06:32:32;100058.72;;;14.84;100.00
73821;BME280;62150;43.582;1.456;2023-05-12T06:34:59;100065.75;;;14.82;100.00
73821;BME280;62150;43.582;1.456;2023-05-12T06:37:27;100068.41;;;14.35;100.00
73821;BME280;62150;43.582;1.456;2023-05-12T06:39:57;100070.91;;;14.52;100.00
73821;BME280;62150;43.582;1.456;2023-05-12T06:42:24;100056.41;;;14.80;100.00
73821;BME280;62150;43.582;1.456;2023-05-12T06:44:52;100064.84;;;14.97;100.00
73821;BME280;62150;43.582;1.456;2023-05-12T06:47:19;100062.28;;;15.12;100.00
73821;BME280;62150;43.582;1.456;2023-05-12T06:49:48;100077.91;;;15.10;100.00
73821;BME280;62150;43.582;1.456;2023-05-12T06:52:16;100068.81;;;15.03;100.00
73821;BME280;62150;43.582;1.456;2023-05-12T06:54:49;100063.91;;;14.98;100.00
73821;BME280;62150;43.582;1.456;2023-05-12T06:57:16;100069.47;;;14.31;100.00
73821;BME280;62150;43.582;1.456;2023-05-12T06:59:43;100069.16;;;15.41;100.00
73821;BME280;62150;43.582;1.456;2023-05-12T07:02:11;100071.94;;;14.64;100.00
73821;BME280;62150;43.582;1.456;2023-05-12T07:04:38;100079.19;;;14.73;100.00
73821;BME280;62150;43.582;1.456;2023-05-12T07:07:07;100079.22;;;14.26;100.00
73821;BME280;62150;43.582;1.456;2023-05-12T07:09:35;100087.34;;;14.51;100.00
73821;BME280;62150;43.582;1.456;2023-05-12T07:12:03;100077.69;;;14.69;100.00
73821;BME280;62150;43.582;1.456;2023-05-12T07:14:30;100083.97;;;14.65;100.00
73821;BME280;62150;43.582;1.456;2023-05-12T07:16:58;100088.56;;;14.28;100.00
73821;BME280;62150;43.582;1.456;2023-05-12T07:19:25;100090.84;;;14.50;100.00
73821;BME280;62150;43.582;1.456;2023-05-12T07:21:53;100084.47;;;14.24;100.00
73821;BME280;62150;43.582;1.456;2023-05-12T07:24:22;100091.75;;;14.02;100.00
73821;BME280;62150;43.582;1.456;2023-05-12T07:26:53;100081.25;;;14.52;100.00
73821;BME280;62150;43.582;1.456;2023-05-12T07:29:20;100087.28;;;14.97;100.00
73821;BME280;62150;43.582;1.456;2023-05-12T07:31:48;100078.16;;;15.05;100.00
73821;BME280;62150;43.582;1.456;2023-05-12T07:34:16;100089.78;;;14.98;100.00
73821;BME280;62150;43.582;1.456;2023-05-12T07:36:46;100075.25;;;15.40;100.00
73821;BME280;62150;43.582;1.456;2023-05-12T07:39:13;100078.03;;;14.93;100.00
73821;BME280;62150;43.582;1.456;2023-05-12T07:41:45;100080.41;;;15.12;100.00
73821;BME280;62150;43.582;1.456;2023-05-12T07:44:13;100082.06;;;15.27;100.00
73821;BME280;62150;43.582;1.456;2023-05-12T07:46:41;100081.44;;;14.49;100.00
73821;BME280;62150;43.582;1.456;2023-05-12T07:49:09;100072.97;;;14.61;100.00
73821;BME280;62150;43.582;1.456;2023-05-12T07:51:36;100075.59;;;14.75;100.00
73821;BME280;62150;43.582;1.456;2023-05-12T07:54:04;100080.69;;;14.47;100.00
73821;BME280;62150;43.582;1.456;2023-05-12T07:56:32;100071.25;;;14.76;100.00
73821;BME280;62150;43.582;1.456;2023-05-12T07:59:01;100072.28;;;14.73;100.00
73821;BME280;62150;43.582;1.456;2023-05-12T08:01:29;100076.25;;;14.49;100.00
73821;BME280;62150;43.582;1.456;2023-05-12T08:03:56;100083.50;;;14.43;100.00
73821;BME280;62150;43.582;1.456;2023-05-12T08:06:24;100075.25;;;14.82;100.00
73821;BME280;62150;43.582;1.456;2023-05-12T08:08:51;100080.53;;;15.67;100.00
73821;BME280;62150;43.582;1.456;2023-05-12T08:11:21;100081.97;;;15.14;100.00
73821;BME280;62150;43.582;1.456;2023-05-12T08:13:48;100085.44;;;14.85;100.00
73821;BME280;62150;43.582;1.456;2023-05-12T08:16:17;100088.81;;;15.15;100.00
73821;BME280;62150;43.582;1.456;2023-05-12T08:18:45;100085.16;;;15.90;100.00
73821;BME280;62150;43.582;1.456;2023-05-12T08:21:12;100087.56;;;15.93;100.00
73821;BME280;62150;43.582;1.456;2023-05-12T08:23:40;100088.31;;;15.67;100.00
73821;BME280;62150;43.582;1.456;2023-05-12T08:26:07;100083.53;;;16.70;100.00
73821;BME280;62150;43.582;1.456;2023-05-12T08:28:35;100088.06;;;15.27;100.00
73821;BME280;62150;43.582;1.456;2023-05-12T08:31:02;100086.31;;;16.67;100.00
73821;BME280;62150;43.582;1.456;2023-05-12T08:33:33;100099.03;;;16.57;100.00
73821;BME280;62150;43.582;1.456;2023-05-12T08:36:02;100089.88;;;16.79;100.00
73821;BME280;62150;43.582;1.456;2023-05-12T08:38:31;100093.25;;;16.39;100.00
73821;BME280;62150;43.582;1.456;2023-05-12T08:41:12;100087.72;;;16.31;100.00
73821;BME280;62150;43.582;1.456;2023-05-12T08:43:42;100078.09;;;17.76;100.00
73821;BME280;62150;43.582;1.456;2023-05-12T08:46:11;100077.56;;;17.46;100.00
73821;BME280;62150;43.582;1.456;2023-05-12T08:48:41;100080.84;;;17.98;100.00
73821;BME280;62150;43.582;1.456;2023-05-12T08:51:13;100077.56;;;17.71;100.00
73821;BME280;62150;43.582;1.456;2023-05-12T08:53:41;100075.31;;;17.28;100.00
73821;BME280;62150;43.582;1.456;2023-05-12T08:56:10;100076.13;;;17.41;100.00
73821;BME280;62150;43.582;1.456;2023-05-12T08:58:44;100079.66;;;17.15;100.00
73821;BME280;62150;43.582;1.456;2023-05-12T09:01:14;100073.25;;;16.68;100.00
73821;BME280;62150;43.582;1.456;2023-05-12T09:03:44;100074.03;;;17.34;100.00
73821;BME280;62150;43.582;1.456;2023-05-12T09:06:13;100081.22;;;16.65;100.00
73821;BME280;62150;43.582;1.456;2023-05-12T09:08:40;100090.28;;;16.46;100.00
73821;BME280;62150;43.582;1.456;2023-05-12T09:11:10;100074.75;;;16.85;100.00
73821;BME280;62150;43.582;1.456;2023-05-12T09:13:44;100071.28;;;17.99;100.00
73821;BME280;62150;43.582;1.456;2023-05-12T09:16:21;100086.34;;;17.32;100.00
73821;BME280;62150;43.582;1.456;2023-05-12T09:18:52;100081.03;;;18.80;100.00
73821;BME280;62150;43.582;1.456;2023-05-12T09:21:19;100082.97;;;17.55;100.00
73821;BME280;62150;43.582;1.456;2023-05-12T09:23:55;100079.69;;;17.28;100.00
73821;BME280;62150;43.582;1.456;2023-05-12T09:26:23;100084.41;;;16.83;100.00
73821;BME280;62150;43.582;1.456;2023-05-12T09:28:52;100077.88;;;17.54;100.00
73821;BME280;62150;43.582;1.456;2023-05-12T09:31:21;100071.84;;;18.15;100.00
73821;BME280;62150;43.582;1.456;2023-05-12T09:33:51;100079.03;;;17.50;100.00
73821;BME280;62150;43.582;1.456;2023-05-12T09:36:19;100088.53;;;16.73;100.00
73821;BME280;62150;43.582;1.456;2023-05-12T09:38:58;100081.41;;;17.02;100.00
73821;BME280;62150;43.582;1.456;2023-05-12T09:41:29;100079.97;;;17.49;100.00
73821;BME280;62150;43.582;1.456;2023-05-12T09:43:59;100078.63;;;17.18;100.00
73821;BME280;62150;43.582;1.456;2023-05-12T09:46:26;100080.56;;;16.89;100.00
73821;BME280;62150;43.582;1.456;2023-05-12T09:48:57;100070.69;;;17.83;100.00
73821;BME280;62150;43.582;1.456;2023-05-12T09:51:25;100071.44;;;17.72;100.00
73821;BME280;62150;43.582;1.456;2023-05-12T09:53:54;100073.81;;;17.88;100.00
73821;BME280;62150;43.582;1.456;2023-05-12T09:56:21;100074.88;;;18.09;100.00
73821;BME280;62150;43.582;1.456;2023-05-12T09:58:50;100075.78;;;18.21;100.00
73821;BME280;62150;43.582;1.456;2023-05-12T10:01:20;100069.53;;;19.28;100.00
73821;BME280;62150;43.582;1.456;2023-05-12T10:03:49;100067.84;;;19.16;100.00
73821;BME280;62150;43.582;1.456;2023-05-12T10:06:26;100069.91;;;18.78;100.00
73821;BME280;62150;43.582;1.456;2023-05-12T10:09:00;100073.00;;;18.83;100.00
73821;BME280;62150;43.582;1.456;2023-05-12T10:11:32;100082.13;;;18.17;100.00
73821;BME280;62150;43.582;1.456;2023-05-12T10:14:00;100080.69;;;17.76;100.00
73821;BME280;62150;43.582;1.456;2023-05-12T10:16:28;100082.53;;;17.99;100.00
73821;BME280;62150;43.582;1.456;2023-05-12T10:18:56;100074.34;;;18.40;100.00
73821;BME280;62150;43.582;1.456;2023-05-12T10:21:26;100073.41;;;17.81;100.00
73821;BME280;62150;43.582;1.456;2023-05-12T10:23:54;100069.28;;;18.02;100.00
73821;BME280;62150;43.582;1.456;2023-05-12T10:26:23;100073.94;;;17.35;100.00
73821;BME280;62150;43.582;1.456;2023-05-12T10:28:51;100063.44;;;17.75;100.00
73821;BME280;62150;43.582;1.456;2023-05-12T10:31:19;100052.38;;;19.26;100.00
73821;BME280;62150;43.582;1.456;2023-05-12T10:33:55;100050.66;;;17.72;100.00
73821;BME280;62150;43.582;1.456;2023-05-12T10:36:25;100051.88;;;18.39;100.00
73821;BME280;62150;43.582;1.456;2023-05-12T10:38:53;100045.25;;;19.17;100.00
73821;BME280;62150;43.582;1.456;2023-05-12T10:41:31;100041.78;;;18.59;100.00
73821;BME280;62150;43.582;1.456;2023-05-12T10:43:59;100052.13;;;18.48;100.00
73821;BME280;62150;43.582;1.456;2023-05-12T10:46:28;100053.75;;;18.14;100.00
73821;BME280;62150;43.582;1.456;2023-05-12T10:48:57;100058.78;;;17.55;100.00
73821;BME280;62150;43.582;1.456;2023-05-12T10:51:31;100047.50;;;18.16;100.00
73821;BME280;62150;43.582;1.456;2023-05-12T10:54:01;100046.41;;;18.31;100.00
73821;BME280;62150;43.582;1.456;2023-05-12T10:56:30;100040.06;;;17.37;100.00
73821;BME280;62150;43.582;1.456;2023-05-12T10:59:11;100036.50;;;18.60;100.00
73821;BME280;62150;43.582;1.456;2023-05-12T11:01:39;100036.94;;;17.70;100.00
73821;BME280;62150;43.582;1.456;2023-05-12T11:04:14;100028.84;;;18.46;100.00
73821;BME280;62150;43.582;1.456;2023-05-12T11:06:43;100038.50;;;17.72;100.00
73821;BME280;62150;43.582;1.456;2023-05-12T11:09:11;100029.78;;;18.45;100.00
73821;BME280;62150;43.582;1.456;2023-05-12T11:11:39;100031.72;;;18.54;100.00
73821;BME280;62150;43.582;1.456;2023-05-12T11:14:08;100027.25;;;20.24;97.45
73821;BME280;62150;43.582;1.456;2023-05-12T11:16:41;100020.78;;;19.75;95.04
73821;BME280;62150;43.582;1.456;2023-05-12T11:19:09;100013.50;;;19.45;100.00
73821;BME280;62150;43.582;1.456;2023-05-12T11:21:38;100015.91;;;20.46;96.75
73821;BME280;62150;43.582;1.456;2023-05-12T11:24:07;99999.34;;;19.27;92.18
73821;BME280;62150;43.582;1.456;2023-05-12T11:26:38;99998.78;;;21.55;88.13
73821;BME280;62150;43.582;1.456;2023-05-12T11:29:06;99996.00;;;21.17;80.27
73821;BME280;62150;43.582;1.456;2023-05-12T11:31:33;99990.13;;;21.45;76.83
73821;BME280;62150;43.582;1.456;2023-05-12T11:34:05;100001.66;;;20.50;83.91
73821;BME280;62150;43.582;1.456;2023-05-12T11:36:37;99993.16;;;19.50;92.68
73821;BME280;62150;43.582;1.456;2023-05-12T11:39:10;99985.50;;;21.68;78.64
73821;BME280;62150;43.582;1.456;2023-05-12T11:41:39;99992.22;;;19.51;90.59
73821;BME280;62150;43.582;1.456;2023-05-12T11:44:16;99994.09;;;20.47;88.77
73821;BME280;62150;43.582;1.456;2023-05-12T11:46:54;99989.66;;;20.58;89.93
73821;BME280;62150;43.582;1.456;2023-05-12T11:49:22;99979.47;;;21.77;86.27
73821;BME280;62150;43.582;1.456;2023-05-12T11:51:51;99988.09;;;19.26;91.68
73821;BME280;62150;43.582;1.456;2023-05-12T11:54:21;99996.06;;;19.90;94.98
73821;BME280;62150;43.582;1.456;2023-05-12T11:56:49;99991.97;;;18.87;100.00
73821;BME280;62150;43.582;1.456;2023-05-12T11:59:27;100001.59;;;18.28;100.00
73821;BME280;62150;43.582;1.456;2023-05-12T12:01:56;99990.69;;;19.15;100.00
73821;BME280;62150;43.582;1.456;2023-05-12T12:04:34;99983.69;;;19.60;100.00
73821;BME280;62150;43.582;1.456;2023-05-12T12:07:02;99985.22;;;19.40;100.00
73821;BME280;62150;43.582;1.456;2023-05-12T12:09:32;99983.34;;;19.31;100.00
73821;BME280;62150;43.582;1.456;2023-05-12T12:12:00;99980.50;;;19.57;100.00
73821;BME280;62150;43.582;1.456;2023-05-12T12:14:29;99976.34;;;19.43;99.60
73821;BME280;62150;43.582;1.456;2023-05-12T12:16:56;99980.28;;;18.58;98.61
73821;BME280;62150;43.582;1.456;2023-05-12T12:19:24;99966.22;;;20.68;86.79
73821;BME280;62150;43.582;1.456;2023-05-12T12:21:53;99965.59;;;20.76;80.69
73821;BME280;62150;43.582;1.456;2023-05-12T12:24:20;99968.06;;;20.03;82.13
73821;BME280;62150;43.582;1.456;2023-05-12T12:26:49;99968.78;;;20.05;74.56
73821;BME280;62150;43.582;1.456;2023-05-12T12:29:17;99955.47;;;21.62;60.14
73821;BME280;62150;43.582;1.456;2023-05-12T12:31:45;99957.94;;;21.64;52.86
73821;BME280;62150;43.582;1.456;2023-05-12T12:34:12;99956.63;;;20.99;52.54
73821;BME280;62150;43.582;1.456;2023-05-12T12:36:40;99963.69;;;20.04;59.57
73821;BME280;62150;43.582;1.456;2023-05-12T12:39:07;99957.84;;;20.44;56.48
73821;BME280;62150;43.582;1.456;2023-05-12T12:41:35;99959.44;;;19.92;62.08
73821;BME280;62150;43.582;1.456;2023-05-12T12:44:04;99944.38;;;22.18;57.39
73821;BME280;62150;43.582;1.456;2023-05-12T12:46:32;99944.06;;;21.63;54.09
73821;BME280;62150;43.582;1.456;2023-05-12T12:48:59;99945.66;;;21.15;58.56
73821;BME280;62150;43.582;1.456;2023-05-12T12:51:27;99923.81;;;22.99;50.01
73821;BME280;62150;43.582;1.456;2023-05-12T12:53:56;99932.88;;;22.58;49.01
73821;BME280;62150;43.582;1.456;2023-05-12T12:56:23;99927.06;;;22.83;50.99
73821;BME280;62150;43.582;1.456;2023-05-12T12:58:51;99923.81;;;22.99;47.76
73821;BME280;62150;43.582;1.456;2023-05-12T13:01:20;99930.72;;;21.86;54.17
73821;BME280;62150;43.582;1.456;2023-05-12T13:03:47;99924.84;;;20.94;64.95
73821;BME280;62150;43.582;1.456;2023-05-12T13:06:15;99927.88;;;22.18;65.59
73821;BME280;62150;43.582;1.456;2023-05-12T13:08:43;99927.84;;;22.37;57.23
73821;BME280;62150;43.582;1.456;2023-05-12T13:11:10;99932.16;;;21.00;68.91
73821;BME280;62150;43.582;1.456;2023-05-12T13:13:38;99928.66;;;20.59;73.85
73821;BME280;62150;43.582;1.456;2023-05-12T13:16:06;99932.53;;;20.65;77.24
73821;BME280;62150;43.582;1.456;2023-05-12T13:18:35;99930.38;;;20.70;79.08
73821;BME280;62150;43.582;1.456;2023-05-12T13:21:02;99929.41;;;20.08;83.92
73821;BME280;62150;43.582;1.456;2023-05-12T13:23:30;99936.00;;;19.26;93.65
73821;BME280;62150;43.582;1.456;2023-05-12T13:25:58;99940.69;;;19.43;99.68
73821;BME280;62150;43.582;1.456;2023-05-12T13:28:25;99940.81;;;19.64;99.74
73821;BME280;62150;43.582;1.456;2023-05-12T13:30:53;99937.13;;;19.45;100.00
73821;BME280;62150;43.582;1.456;2023-05-12T13:33:20;99938.25;;;18.97;100.00
73821;BME280;62150;43.582;1.456;2023-05-12T13:35:50;99928.78;;;20.37;96.52
73821;BME280;62150;43.582;1.456;2023-05-12T13:38:17;99933.78;;;20.08;97.55
73821;BME280;62150;43.582;1.456;2023-05-12T13:40:45;99934.50;;;20.72;88.70
73821;BME280;62150;43.582;1.456;2023-05-12T13:43:12;99934.53;;;21.53;86.80
73821;BME280;62150;43.582;1.456;2023-05-12T13:45:40;99938.78;;;21.34;88.14
73821;BME280;62150;43.582;1.456;2023-05-12T13:48:07;99930.84;;;21.84;89.20
73821;BME280;62150;43.582;1.456;2023-05-12T13:50:35;99930.19;;;20.92;91.49
73821;BME280;62150;43.582;1.456;2023-05-12T13:53:04;99930.41;;;19.96;100.00
73821;BME280;62150;43.582;1.456;2023-05-12T13:55:31;99918.66;;;20.64;96.82
73821;BME280;62150;43.582;1.456;2023-05-12T13:58:03;99923.78;;;19.38;100.00
73821;BME280;62150;43.582;1.456;2023-05-12T14:00:31;99914.69;;;18.88;100.00
73821;BME280;62150;43.582;1.456;2023-05-12T14:02:59;99927.06;;;19.62;100.00
73821;BME280;62150;43.582;1.456;2023-05-12T14:05:26;99931.59;;;19.38;100.00
73821;BME280;62150;43.582;1.456;2023-05-12T14:07:54;99921.44;;;18.79;100.00
73821;BME280;62150;43.582;1.456;2023-05-12T14:10:23;99919.06;;;19.09;100.00
73821;BME280;62150;43.582;1.456;2023-05-12T14:12:50;99918.38;;;18.96;100.00
73821;BME280;62150;43.582;1.456;2023-05-12T14:15:18;99925.84;;;19.01;100.00
73821;BME280;62150;43.582;1.456;2023-05-12T14:17:45;99923.44;;;19.09;100.00
73821;BME280;62150;43.582;1.456;2023-05-12T14:20:13;99912.81;;;18.67;100.00
73821;BME280;62150;43.582;1.456;2023-05-12T14:22:40;99912.75;;;18.56;100.00
73821;BME280;62150;43.582;1.456;2023-05-12T14:25:08;99919.19;;;18.74;100.00
73821;BME280;62150;43.582;1.456;2023-05-12T14:27:37;99920.56;;;18.56;100.00
73821;BME280;62150;43.582;1.456;2023-05-12T14:30:06;99919.09;;;19.75;100.00
73821;BME280;62150;43.582;1.456;2023-05-12T14:32:34;99919.00;;;19.65;100.00
73821;BME280;62150;43.582;1.456;2023-05-12T14:35:01;99918.66;;;19.70;100.00
73821;BME280;62150;43.582;1.456;2023-05-12T14:37:29;99923.44;;;19.09;100.00
73821;BME280;62150;43.582;1.456;2023-05-12T14:39:57;99921.22;;;19.04;100.00
73821;BME280;62150;43.582;1.456;2023-05-12T14:42:25;99937.41;;;18.04;100.00
73821;BME280;62150;43.582;1.456;2023-05-12T14:44:55;99952.44;;;19.16;100.00
73821;BME280;62150;43.582;1.456;2023-05-12T14:47:23;99970.81;;;18.22;100.00
73821;BME280;62150;43.582;1.456;2023-05-12T14:49:51;99974.28;;;17.98;100.00
73821;BME280;62150;43.582;1.456;2023-05-12T14:52:18;99971.63;;;17.87;100.00
73821;BME280;62150;43.582;1.456;2023-05-12T14:54:46;99962.97;;;18.81;100.00
73821;BME280;62150;43.582;1.456;2023-05-12T14:57:13;99955.84;;;19.72;100.00
73821;BME280;62150;43.582;1.456;2023-05-12T14:59:40;99948.53;;;20.19;100.00
73821;BME280;62150;43.582;1.456;2023-05-12T15:02:09;99950.19;;;18.89;100.00
73821;BME280;62150;43.582;1.456;2023-05-12T15:04:37;99959.44;;;18.93;100.00
73821;BME280;62150;43.582;1.456;2023-05-12T15:07:04;99952.44;;;18.82;100.00
73821;BME280;62150;43.582;1.456;2023-05-12T15:09:33;99955.38;;;18.78;100.00
73821;BME280;62150;43.582;1.456;2023-05-12T15:12:01;99963.72;;;17.39;100.00
73821;BME280;62150;43.582;1.456;2023-05-12T15:14:32;99960.25;;;18.36;100.00
73821;BME280;62150;43.582;1.456;2023-05-12T15:17:01;99967.41;;;18.21;100.00
73821;BME280;62150;43.582;1.456;2023-05-12T15:19:30;99973.75;;;17.20;100.00
73821;BME280;62150;43.582;1.456;2023-05-12T15:21:58;99976.06;;;17.98;100.00
73821;BME280;62150;43.582;1.456;2023-05-12T15:24:32;99986.94;;;17.79;100.00
73821;BME280;62150;43.582;1.456;2023-05-12T15:27:01;99984.03;;;17.22;100.00
73821;BME280;62150;43.582;1.456;2023-05-12T15:29:36;99984.06;;;16.96;100.00
73821;BME280;62150;43.582;1.456;2023-05-12T15:32:04;99986.88;;;16.54;100.00
73821;BME280;62150;43.582;1.456;2023-05-12T15:34:35;99979.28;;;18.13;100.00
73821;BME280;62150;43.582;1.456;2023-05-12T15:37:03;99995.22;;;16.32;100.00
73821;BME280;62150;43.582;1.456;2023-05-12T15:39:31;99997.47;;;15.84;100.00
73821;BME280;62150;43.582;1.456;2023-05-12T15:41:59;99984.78;;;16.86;100.00
73821;BME280;62150;43.582;1.456;2023-05-12T15:44:27;99994.53;;;16.95;100.00
73821;BME280;62150;43.582;1.456;2023-05-12T15:46:54;99996.75;;;16.61;100.00
73821;BME280;62150;43.582;1.456;2023-05-12T15:49:22;99997.09;;;16.03;100.00
73821;BME280;62150;43.582;1.456;2023-05-12T15:51:51;99992.84;;;17.32;100.00
73821;BME280;62150;43.582;1.456;2023-05-12T15:54:18;99994.56;;;16.55;100.00
73821;BME280;62150;43.582;1.456;2023-05-12T15:56:48;99989.44;;;17.68;100.00
73821;BME280;62150;43.582;1.456;2023-05-12T15:59:15;100000.25;;;18.22;100.00
73821;BME280;62150;43.582;1.456;2023-05-12T16:01:43;100010.03;;;16.57;100.00
73821;BME280;62150;43.582;1.456;2023-05-12T16:04:10;100008.34;;;17.70;100.00
73821;BME280;62150;43.582;1.456;2023-05-12T16:06:38;100013.66;;;16.54;100.00
73821;BME280;62150;43.582;1.456;2023-05-12T16:09:07;100015.44;;;16.66;100.00
73821;BME280;62150;43.582;1.456;2023-05-12T16:11:35;100016.47;;;16.64;100.00
73821;BME280;62150;43.582;1.456;2023-05-12T16:14:02;100017.84;;;17.33;100.00
73821;BME280;62150;43.582;1.456;2023-05-12T16:16:33;100025.66;;;16.16;100.00
73821;BME280;62150;43.582;1.456;2023-05-12T16:19:02;100017.47;;;17.26;100.00
73821;BME280;62150;43.582;1.456;2023-05-12T16:21:30;100013.19;;;17.87;100.00
73821;BME280;62150;43.582;1.456;2023-05-12T16:23:57;100007.38;;;17.09;100.00
73821;BME280;62150;43.582;1.456;2023-05-12T16:26:26;100009.00;;;17.97;100.00
73821;BME280;62150;43.582;1.456;2023-05-12T16:28:56;100009.72;;;17.50;100.00
73821;BME280;62150;43.582;1.456;2023-05-12T16:31:24;100008.22;;;18.08;100.00
73821;BME280;62150;43.582;1.456;2023-05-12T16:33:51;100019.84;;;17.17;100.00
73821;BME280;62150;43.582;1.456;2023-05-12T16:36:19;100015.06;;;17.85;100.00
73821;BME280;62150;43.582;1.456;2023-05-12T16:38:47;100006.78;;;18.04;100.00
73821;BME280;62150;43.582;1.456;2023-05-12T16:41:14;100010.59;;;17.25;100.00
73821;BME280;62150;43.582;1.456;2023-05-12T16:43:50;100011.19;;;17.67;100.00
73821;BME280;62150;43.582;1.456;2023-05-12T16:46:18;100022.56;;;16.90;100.00
73821;BME280;62150;43.582;1.456;2023-05-12T16:48:46;100008.22;;;17.84;100.00
73821;BME280;62150;43.582;1.456;2023-05-12T16:51:14;100012.28;;;17.26;100.00
73821;BME280;62150;43.582;1.456;2023-05-12T16:53:42;100008.22;;;17.22;100.00
73821;BME280;62150;43.582;1.456;2023-05-12T16:56:11;100004.59;;;17.12;100.00
73821;BME280;62150;43.582;1.456;2023-05-12T16:58:39;100005.19;;;16.65;100.00
73821;BME280;62150;43.582;1.456;2023-05-12T17:01:08;100000.69;;;17.56;100.00
73821;BME280;62150;43.582;1.456;2023-05-12T17:03:35;100002.25;;;18.19;100.00
73821;BME280;62150;43.582;1.456;2023-05-12T17:06:04;99994.03;;;17.64;100.00
73821;BME280;62150;43.582;1.456;2023-05-12T17:08:31;99998.97;;;17.31;100.00
73821;BME280;62150;43.582;1.456;2023-05-12T17:11:00;99990.09;;;18.19;100.00
73821;BME280;62150;43.582;1.456;2023-05-12T17:13:28;99981.19;;;17.87;100.00
73821;BME280;62150;43.582;1.456;2023-05-12T17:15:56;99985.78;;;18.42;100.00
73821;BME280;62150;43.582;1.456;2023-05-12T17:18:25;99991.63;;;18.57;100.00
73821;BME280;62150;43.582;1.456;2023-05-12T17:20:52;99994.56;;;17.93;100.00
73821;BME280;62150;43.582;1.456;2023-05-12T17:23:20;99998.13;;;17.92;100.00
73821;BME280;62150;43.582;1.456;2023-05-12T17:25:56;99990.59;;;16.89;100.00
73821;BME280;62150;43.582;1.456;2023-05-12T17:28:23;99983.16;;;17.83;100.00
73821;BME280;62150;43.582;1.456;2023-05-12T17:30:54;99973.03;;;18.50;100.00
73821;BME280;62150;43.582;1.456;2023-05-12T17:33:22;99965.53;;;18.23;100.00
73821;BME280;62150;43.582;1.456;2023-05-12T17:35:53;99963.31;;;18.41;100.00
73821;BME280;62150;43.582;1.456;2023-05-12T17:38:22;99957.22;;;18.53;100.00
73821;BME280;62150;43.582;1.456;2023-05-12T17:40:51;99965.41;;;18.25;100.00
73821;BME280;62150;43.582;1.456;2023-05-12T17:43:21;99964.25;;;18.64;100.00
73821;BME280;62150;43.582;1.456;2023-05-12T17:45:48;99970.75;;;18.81;100.00
73821;BME280;62150;43.582;1.456;2023-05-12T17:48:16;99979.59;;;17.97;100.00
73821;BME280;62150;43.582;1.456;2023-05-12T17:50:44;99980.16;;;19.05;100.00
73821;BME280;62150;43.582;1.456;2023-05-12T17:53:15;99996.88;;;17.85;100.00
73821;BME280;62150;43.582;1.456;2023-05-12T17:55:43;100002.94;;;17.73;100.00
73821;BME280;62150;43.582;1.456;2023-05-12T17:58:10;100003.09;;;17.46;100.00
73821;BME280;62150;43.582;1.456;2023-05-12T18:00:38;100005.06;;;17.42;100.00
73821;BME280;62150;43.582;1.456;2023-05-12T18:03:06;100008.81;;;17.51;100.00
73821;BME280;62150;43.582;1.456;2023-05-12T18:05:33;99998.69;;;16.97;100.00
73821;BME280;62150;43.582;1.456;2023-05-12T18:08:01;100002.22;;;16.96;100.00
73821;BME280;62150;43.582;1.456;2023-05-12T18:10:30;100012.16;;;17.15;100.00
73821;BME280;62150;43.582;1.456;2023-05-12T18:12:57;100029.69;;;16.99;100.00
73821;BME280;62150;43.582;1.456;2023-05-12T18:15:25;100023.19;;;17.31;100.00
73821;BME280;62150;43.582;1.456;2023-05-12T18:17:53;100029.91;;;17.47;100.00